sensor_id;sensor_type;location;lat;lon;timestamp;P1;durP1;ratioP1;P2;durP2;ratioP2
75758;SDS011;64371;47.566;19.086;2023-07-02T00:02:11;15.15;;;10.93;;
75758;SDS011;64371;47.566;19.086;2023-07-02T00:05:13;16.85;;;10.75;;
75758;SDS011;64371;47.566;19.086;2023-07-02T00:08:16;14.70;;;10.37;;
75758;SDS011;64371;47.566;19.086;2023-07-02T00:11:18;13.82;;;10.13;;
75758;SDS011;64371;47.566;19.086;2023-07-02T00:14:20;14.50;;;10.63;;
75758;SDS011;64371;47.566;19.086;2023-07-02T00:17:23;13.80;;;10.15;;
75758;SDS011;64371;47.566;19.086;2023-07-02T00:20:26;15.13;;;10.40;;
75758;SDS011;64371;47.566;19.086;2023-07-02T00:23:28;16.10;;;11.10;;
75758;SDS011;64371;47.566;19.086;2023-07-02T00:26:31;14.40;;;9.63;;
75758;SDS011;64371;47.566;19.086;2023-07-02T00:29:33;13.98;;;9.90;;
75758;SDS011;64371;47.566;19.086;2023-07-02T00:32:36;16.52;;;10.73;;
75758;SDS011;64371;47.566;19.086;2023-07-02T00:35:38;14.95;;;9.90;;
75758;SDS011;64371;47.566;19.086;2023-07-02T00:38:41;14.70;;;10.27;;
75758;SDS011;64371;47.566;19.086;2023-07-02T00:41:44;14.48;;;10.15;;
75758;SDS011;64371;47.566;19.086;2023-07-02T00:44:50;13.68;;;9.65;;
75758;SDS011;64371;47.566;19.086;2023-07-02T00:47:54;13.88;;;9.80;;
75758;SDS011;64371;47.566;19.086;2023-07-02T00:50:57;15.90;;;9.23;;
75758;SDS011;64371;47.566;19.086;2023-07-02T00:53:59;13.87;;;9.40;;
75758;SDS011;64371;47.566;19.086;2023-07-02T00:57:02;14.63;;;9.38;;
75758;SDS011;64371;47.566;19.086;2023-07-02T01:00:05;13.52;;;8.98;;
75758;SDS011;64371;47.566;19.086;2023-07-02T01:03:11;15.27;;;9.80;;
75758;SDS011;64371;47.566;19.086;2023-07-02T01:06:13;14.15;;;9.82;;
75758;SDS011;64371;47.566;19.086;2023-07-02T01:09:17;14.73;;;10.20;;
75758;SDS011;64371;47.566;19.086;2023-07-02T01:12:19;12.80;;;9.00;;
75758;SDS011;64371;47.566;19.086;2023-07-02T01:15:23;14.25;;;9.93;;
75758;SDS011;64371;47.566;19.086;2023-07-02T01:18:25;12.85;;;9.25;;
75758;SDS011;64371;47.566;19.086;2023-07-02T01:21:28;15.45;;;9.52;;
75758;SDS011;64371;47.566;19.086;2023-07-02T01:24:31;13.10;;;8.93;;
75758;SDS011;64371;47.566;19.086;2023-07-02T01:27:34;16.08;;;9.23;;
75758;SDS011;64371;47.566;19.086;2023-07-02T01:30:37;12.23;;;8.75;;
75758;SDS011;64371;47.566;19.086;2023-07-02T01:33:42;14.50;;;9.10;;
75758;SDS011;64371;47.566;19.086;2023-07-02T01:36:44;13.18;;;9.85;;
75758;SDS011;64371;47.566;19.086;2023-07-02T01:39:46;15.00;;;9.50;;
75758;SDS011;64371;47.566;19.086;2023-07-02T01:42:49;13.52;;;8.85;;
75758;SDS011;64371;47.566;19.086;2023-07-02T01:45:51;13.30;;;9.52;;
75758;SDS011;64371;47.566;19.086;2023-07-02T01:48:54;12.77;;;9.10;;
75758;SDS011;64371;47.566;19.086;2023-07-02T01:51:57;12.25;;;8.60;;
75758;SDS011;64371;47.566;19.086;2023-07-02T01:55:01;14.53;;;8.77;;
75758;SDS011;64371;47.566;19.086;2023-07-02T01:58:05;12.73;;;8.38;;
75758;SDS011;64371;47.566;19.086;2023-07-02T02:01:07;13.75;;;9.25;;
75758;SDS011;64371;47.566;19.086;2023-07-02T02:04:10;13.60;;;8.68;;
75758;SDS011;64371;47.566;19.086;2023-07-02T02:07:12;12.70;;;8.15;;
75758;SDS011;64371;47.566;19.086;2023-07-02T02:10:15;11.67;;;8.63;;
75758;SDS011;64371;47.566;19.086;2023-07-02T02:13:17;11.73;;;8.15;;
75758;SDS011;64371;47.566;19.086;2023-07-02T02:16:20;11.57;;;8.48;;
75758;SDS011;64371;47.566;19.086;2023-07-02T02:19:22;12.85;;;8.60;;
75758;SDS011;64371;47.566;19.086;2023-07-02T02:22:24;13.65;;;8.77;;
75758;SDS011;64371;47.566;19.086;2023-07-02T02:25:27;12.17;;;8.40;;
75758;SDS011;64371;47.566;19.086;2023-07-02T02:28:29;11.95;;;8.68;;
75758;SDS011;64371;47.566;19.086;2023-07-02T02:31:31;12.10;;;7.85;;
75758;SDS011;64371;47.566;19.086;2023-07-02T02:34:35;10.60;;;7.60;;
75758;SDS011;64371;47.566;19.086;2023-07-02T02:37:38;11.68;;;7.78;;
75758;SDS011;64371;47.566;19.086;2023-07-02T02:40:42;13.53;;;8.27;;
75758;SDS011;64371;47.566;19.086;2023-07-02T02:43:48;11.65;;;7.93;;
75758;SDS011;64371;47.566;19.086;2023-07-02T02:46:52;11.18;;;8.18;;
75758;SDS011;64371;47.566;19.086;2023-07-02T02:49:55;12.43;;;8.10;;
75758;SDS011;64371;47.566;19.086;2023-07-02T02:52:57;13.15;;;8.55;;
75758;SDS011;64371;47.566;19.086;2023-07-02T02:56:00;10.60;;;7.63;;
75758;SDS011;64371;47.566;19.086;2023-07-02T02:59:02;9.63;;;6.55;;
75758;SDS011;64371;47.566;19.086;2023-07-02T03:02:04;12.13;;;7.05;;
75758;SDS011;64371;47.566;19.086;2023-07-02T03:05:07;9.43;;;6.82;;
75758;SDS011;64371;47.566;19.086;2023-07-02T03:08:10;9.32;;;6.57;;
75758;SDS011;64371;47.566;19.086;2023-07-02T03:11:12;10.17;;;7.07;;
75758;SDS011;64371;47.566;19.086;2023-07-02T03:14:14;7.97;;;5.90;;
75758;SDS011;64371;47.566;19.086;2023-07-02T03:17:17;10.18;;;6.30;;
75758;SDS011;64371;47.566;19.086;2023-07-02T03:20:19;9.32;;;6.20;;
75758;SDS011;64371;47.566;19.086;2023-07-02T03:23:22;9.73;;;6.53;;
75758;SDS011;64371;47.566;19.086;2023-07-02T03:26:24;11.00;;;5.90;;
75758;SDS011;64371;47.566;19.086;2023-07-02T03:29:26;8.52;;;5.88;;
75758;SDS011;64371;47.566;19.086;2023-07-02T03:32:29;7.97;;;5.75;;
75758;SDS011;64371;47.566;19.086;2023-07-02T03:35:31;8.75;;;5.60;;
75758;SDS011;64371;47.566;19.086;2023-07-02T03:38:33;7.25;;;5.45;;
75758;SDS011;64371;47.566;19.086;2023-07-02T03:41:36;7.97;;;5.60;;
75758;SDS011;64371;47.566;19.086;2023-07-02T03:44:38;10.05;;;5.95;;
75758;SDS011;64371;47.566;19.086;2023-07-02T03:47:40;8.23;;;5.95;;
75758;SDS011;64371;47.566;19.086;2023-07-02T03:50:43;15.20;;;5.88;;
75758;SDS011;64371;47.566;19.086;2023-07-02T03:53:45;7.65;;;5.30;;
75758;SDS011;64371;47.566;19.086;2023-07-02T03:56:47;7.23;;;5.23;;
75758;SDS011;64371;47.566;19.086;2023-07-02T03:59:50;8.30;;;5.18;;
75758;SDS011;64371;47.566;19.086;2023-07-02T04:02:52;9.82;;;5.68;;
75758;SDS011;64371;47.566;19.086;2023-07-02T04:05:54;6.53;;;5.40;;
75758;SDS011;64371;47.566;19.086;2023-07-02T04:08:57;7.07;;;5.13;;
75758;SDS011;64371;47.566;19.086;2023-07-02T04:12:00;8.50;;;5.83;;
75758;SDS011;64371;47.566;19.086;2023-07-02T04:15:03;6.95;;;5.18;;
75758;SDS011;64371;47.566;19.086;2023-07-02T04:18:07;9.50;;;5.40;;
75758;SDS011;64371;47.566;19.086;2023-07-02T04:21:09;11.40;;;5.88;;
75758;SDS011;64371;47.566;19.086;2023-07-02T04:24:11;8.65;;;5.30;;
75758;SDS011;64371;47.566;19.086;2023-07-02T04:27:15;10.13;;;5.80;;
75758;SDS011;64371;47.566;19.086;2023-07-02T04:30:39;9.27;;;5.50;;
75758;SDS011;64371;47.566;19.086;2023-07-02T04:33:41;10.55;;;5.60;;
75758;SDS011;64371;47.566;19.086;2023-07-02T04:36:44;8.77;;;5.20;;
75758;SDS011;64371;47.566;19.086;2023-07-02T04:39:46;7.45;;;5.63;;
75758;SDS011;64371;47.566;19.086;2023-07-02T04:42:49;7.43;;;5.13;;
75758;SDS011;64371;47.566;19.086;2023-07-02T04:45:57;8.75;;;5.97;;
75758;SDS011;64371;47.566;19.086;2023-07-02T04:49:00;8.00;;;5.63;;
75758;SDS011;64371;47.566;19.086;2023-07-02T04:52:02;9.65;;;6.43;;
75758;SDS011;64371;47.566;19.086;2023-07-02T04:55:05;7.65;;;5.55;;
75758;SDS011;64371;47.566;19.086;2023-07-02T04:58:08;12.10;;;6.20;;
75758;SDS011;64371;47.566;19.086;2023-07-02T05:01:10;8.93;;;5.47;;
75758;SDS011;64371;47.566;19.086;2023-07-02T05:04:13;9.57;;;5.43;;
75758;SDS011;64371;47.566;19.086;2023-07-02T05:07:15;8.85;;;5.38;;
75758;SDS011;64371;47.566;19.086;2023-07-02T05:10:18;6.80;;;5.03;;
75758;SDS011;64371;47.566;19.086;2023-07-02T05:13:20;6.67;;;4.80;;
75758;SDS011;64371;47.566;19.086;2023-07-02T05:16:22;8.02;;;5.13;;
75758;SDS011;64371;47.566;19.086;2023-07-02T05:19:25;7.70;;;5.68;;
75758;SDS011;64371;47.566;19.086;2023-07-02T05:22:27;8.82;;;5.57;;
75758;SDS011;64371;47.566;19.086;2023-07-02T05:25:29;8.57;;;5.43;;
75758;SDS011;64371;47.566;19.086;2023-07-02T05:28:32;6.90;;;4.97;;
75758;SDS011;64371;47.566;19.086;2023-07-02T05:31:34;6.30;;;4.85;;
75758;SDS011;64371;47.566;19.086;2023-07-02T05:34:36;8.98;;;5.22;;
75758;SDS011;64371;47.566;19.086;2023-07-02T05:37:39;6.35;;;4.90;;
75758;SDS011;64371;47.566;19.086;2023-07-02T05:40:41;8.63;;;4.70;;
75758;SDS011;64371;47.566;19.086;2023-07-02T05:43:43;5.10;;;4.37;;
75758;SDS011;64371;47.566;19.086;2023-07-02T05:46:45;6.20;;;4.50;;
75758;SDS011;64371;47.566;19.086;2023-07-02T05:49:48;8.05;;;4.65;;
75758;SDS011;64371;47.566;19.086;2023-07-02T05:52:50;6.35;;;4.53;;
75758;SDS011;64371;47.566;19.086;2023-07-02T05:55:52;7.63;;;4.88;;
75758;SDS011;64371;47.566;19.086;2023-07-02T05:58:55;7.23;;;4.70;;
75758;SDS011;64371;47.566;19.086;2023-07-02T06:01:57;6.88;;;4.82;;
75758;SDS011;64371;47.566;19.086;2023-07-02T06:04:59;7.60;;;5.30;;
75758;SDS011;64371;47.566;19.086;2023-07-02T06:08:04;6.95;;;4.50;;
75758;SDS011;64371;47.566;19.086;2023-07-02T06:11:06;7.65;;;5.10;;
75758;SDS011;64371;47.566;19.086;2023-07-02T06:14:08;6.17;;;4.60;;
75758;SDS011;64371;47.566;19.086;2023-07-02T06:17:11;7.03;;;4.40;;
75758;SDS011;64371;47.566;19.086;2023-07-02T06:20:13;7.82;;;4.63;;
75758;SDS011;64371;47.566;19.086;2023-07-02T06:23:15;8.18;;;4.68;;
75758;SDS011;64371;47.566;19.086;2023-07-02T06:26:18;7.00;;;4.65;;
75758;SDS011;64371;47.566;19.086;2023-07-02T06:29:21;5.90;;;4.60;;
75758;SDS011;64371;47.566;19.086;2023-07-02T06:32:24;5.47;;;4.28;;
75758;SDS011;64371;47.566;19.086;2023-07-02T06:35:26;10.02;;;4.93;;
75758;SDS011;64371;47.566;19.086;2023-07-02T06:38:28;6.68;;;4.68;;
75758;SDS011;64371;47.566;19.086;2023-07-02T06:41:31;7.30;;;4.40;;
75758;SDS011;64371;47.566;19.086;2023-07-02T06:44:33;6.10;;;4.30;;
75758;SDS011;64371;47.566;19.086;2023-07-02T06:47:35;5.20;;;4.13;;
75758;SDS011;64371;47.566;19.086;2023-07-02T06:50:38;6.30;;;4.78;;
75758;SDS011;64371;47.566;19.086;2023-07-02T06:53:41;5.45;;;4.53;;
75758;SDS011;64371;47.566;19.086;2023-07-02T06:56:43;6.97;;;5.00;;
75758;SDS011;64371;47.566;19.086;2023-07-02T06:59:46;5.90;;;4.03;;
75758;SDS011;64371;47.566;19.086;2023-07-02T07:02:51;7.25;;;4.43;;
75758;SDS011;64371;47.566;19.086;2023-07-02T07:05:53;5.80;;;4.32;;
75758;SDS011;64371;47.566;19.086;2023-07-02T07:08:56;8.70;;;4.15;;
75758;SDS011;64371;47.566;19.086;2023-07-02T07:11:58;4.78;;;4.07;;
75758;SDS011;64371;47.566;19.086;2023-07-02T07:15:00;14.30;;;10.63;;
75758;SDS011;64371;47.566;19.086;2023-07-02T07:18:03;5.95;;;4.38;;
75758;SDS011;64371;47.566;19.086;2023-07-02T07:21:06;4.72;;;4.22;;
75758;SDS011;64371;47.566;19.086;2023-07-02T07:24:08;4.80;;;4.03;;
75758;SDS011;64371;47.566;19.086;2023-07-02T07:27:11;6.75;;;4.68;;
75758;SDS011;64371;47.566;19.086;2023-07-02T07:30:13;6.00;;;4.40;;
75758;SDS011;64371;47.566;19.086;2023-07-02T07:33:16;5.20;;;4.63;;
75758;SDS011;64371;47.566;19.086;2023-07-02T07:36:18;6.68;;;4.20;;
75758;SDS011;64371;47.566;19.086;2023-07-02T07:39:21;7.18;;;4.15;;
75758;SDS011;64371;47.566;19.086;2023-07-02T07:42:23;6.88;;;4.13;;
75758;SDS011;64371;47.566;19.086;2023-07-02T07:45:26;6.77;;;4.43;;
75758;SDS011;64371;47.566;19.086;2023-07-02T07:48:28;4.88;;;4.30;;
75758;SDS011;64371;47.566;19.086;2023-07-02T07:51:30;6.63;;;4.55;;
75758;SDS011;64371;47.566;19.086;2023-07-02T07:54:33;6.95;;;4.28;;
75758;SDS011;64371;47.566;19.086;2023-07-02T07:57:38;5.07;;;4.22;;
75758;SDS011;64371;47.566;19.086;2023-07-02T08:00:41;5.83;;;4.67;;
75758;SDS011;64371;47.566;19.086;2023-07-02T08:03:43;5.63;;;3.17;;
75758;SDS011;64371;47.566;19.086;2023-07-02T08:06:45;6.25;;;3.80;;
75758;SDS011;64371;47.566;19.086;2023-07-02T08:09:48;5.45;;;3.88;;
75758;SDS011;64371;47.566;19.086;2023-07-02T08:12:50;5.18;;;3.90;;
75758;SDS011;64371;47.566;19.086;2023-07-02T08:15:54;4.70;;;4.10;;
75758;SDS011;64371;47.566;19.086;2023-07-02T08:18:56;7.80;;;3.92;;
75758;SDS011;64371;47.566;19.086;2023-07-02T08:21:59;12.80;;;4.43;;
75758;SDS011;64371;47.566;19.086;2023-07-02T08:25:01;7.85;;;3.65;;
75758;SDS011;64371;47.566;19.086;2023-07-02T08:28:03;4.20;;;3.80;;
75758;SDS011;64371;47.566;19.086;2023-07-02T08:31:05;5.00;;;3.90;;
75758;SDS011;64371;47.566;19.086;2023-07-02T08:34:08;4.47;;;3.72;;
75758;SDS011;64371;47.566;19.086;2023-07-02T08:37:10;4.88;;;3.55;;
75758;SDS011;64371;47.566;19.086;2023-07-02T08:40:16;8.75;;;4.20;;
75758;SDS011;64371;47.566;19.086;2023-07-02T08:43:20;5.28;;;3.70;;
75758;SDS011;64371;47.566;19.086;2023-07-02T08:46:23;4.90;;;3.70;;
75758;SDS011;64371;47.566;19.086;2023-07-02T08:49:25;5.95;;;4.30;;
75758;SDS011;64371;47.566;19.086;2023-07-02T08:52:28;5.32;;;4.32;;
75758;SDS011;64371;47.566;19.086;2023-07-02T08:55:30;6.30;;;3.80;;
75758;SDS011;64371;47.566;19.086;2023-07-02T08:58:33;5.35;;;3.50;;
75758;SDS011;64371;47.566;19.086;2023-07-02T09:01:45;4.63;;;3.90;;
75758;SDS011;64371;47.566;19.086;2023-07-02T09:04:58;4.75;;;3.60;;
75758;SDS011;64371;47.566;19.086;2023-07-02T09:08:01;4.65;;;4.10;;
75758;SDS011;64371;47.566;19.086;2023-07-02T09:11:10;4.30;;;3.90;;
75758;SDS011;64371;47.566;19.086;2023-07-02T09:14:23;6.28;;;4.80;;
75758;SDS011;64371;47.566;19.086;2023-07-02T09:17:32;5.93;;;4.00;;
75758;SDS011;64371;47.566;19.086;2023-07-02T09:20:36;4.97;;;4.10;;
75758;SDS011;64371;47.566;19.086;2023-07-02T09:23:38;5.10;;;4.30;;
75758;SDS011;64371;47.566;19.086;2023-07-02T09:26:48;5.80;;;4.18;;
75758;SDS011;64371;47.566;19.086;2023-07-02T09:29:51;5.13;;;4.13;;
75758;SDS011;64371;47.566;19.086;2023-07-02T09:33:05;5.63;;;4.20;;
75758;SDS011;64371;47.566;19.086;2023-07-02T09:36:08;6.30;;;4.60;;
75758;SDS011;64371;47.566;19.086;2023-07-02T09:39:14;7.80;;;4.97;;
75758;SDS011;64371;47.566;19.086;2023-07-02T09:42:21;6.70;;;4.97;;
75758;SDS011;64371;47.566;19.086;2023-07-02T09:45:23;5.78;;;4.68;;
75758;SDS011;64371;47.566;19.086;2023-07-02T09:48:27;8.70;;;6.57;;
75758;SDS011;64371;47.566;19.086;2023-07-02T09:51:34;7.88;;;4.88;;
75758;SDS011;64371;47.566;19.086;2023-07-02T09:54:38;5.53;;;4.60;;
75758;SDS011;64371;47.566;19.086;2023-07-02T09:57:43;4.97;;;4.03;;
75758;SDS011;64371;47.566;19.086;2023-07-02T10:00:46;5.53;;;4.40;;
75758;SDS011;64371;47.566;19.086;2023-07-02T10:03:49;5.87;;;4.00;;
75758;SDS011;64371;47.566;19.086;2023-07-02T10:09:55;4.90;;;4.00;;
75758;SDS011;64371;47.566;19.086;2023-07-02T10:12:58;6.95;;;4.43;;
75758;SDS011;64371;47.566;19.086;2023-07-02T10:16:01;9.55;;;4.63;;
75758;SDS011;64371;47.566;19.086;2023-07-02T10:19:11;6.07;;;4.20;;
75758;SDS011;64371;47.566;19.086;2023-07-02T10:22:13;6.05;;;4.30;;
75758;SDS011;64371;47.566;19.086;2023-07-02T10:25:25;5.68;;;4.32;;
75758;SDS011;64371;47.566;19.086;2023-07-02T10:28:28;13.15;;;3.95;;
75758;SDS011;64371;47.566;19.086;2023-07-02T10:31:31;6.00;;;3.90;;
75758;SDS011;64371;47.566;19.086;2023-07-02T10:34:34;4.23;;;3.77;;
75758;SDS011;64371;47.566;19.086;2023-07-02T10:37:37;4.45;;;3.80;;
75758;SDS011;64371;47.566;19.086;2023-07-02T10:40:40;5.43;;;4.85;;
75758;SDS011;64371;47.566;19.086;2023-07-02T10:43:44;5.30;;;3.67;;
75758;SDS011;64371;47.566;19.086;2023-07-02T10:46:47;5.95;;;4.07;;
75758;SDS011;64371;47.566;19.086;2023-07-02T10:49:50;5.20;;;4.00;;
75758;SDS011;64371;47.566;19.086;2023-07-02T10:52:53;4.20;;;3.75;;
75758;SDS011;64371;47.566;19.086;2023-07-02T10:55:56;6.28;;;3.72;;
75758;SDS011;64371;47.566;19.086;2023-07-02T10:59:00;5.60;;;3.70;;
75758;SDS011;64371;47.566;19.086;2023-07-02T11:02:03;4.35;;;3.92;;
75758;SDS011;64371;47.566;19.086;2023-07-02T11:05:06;7.50;;;3.77;;
75758;SDS011;64371;47.566;19.086;2023-07-02T11:08:15;5.10;;;3.80;;
75758;SDS011;64371;47.566;19.086;2023-07-02T11:11:18;5.47;;;4.10;;
75758;SDS011;64371;47.566;19.086;2023-07-02T11:14:35;6.68;;;3.63;;
75758;SDS011;64371;47.566;19.086;2023-07-02T11:17:38;5.78;;;3.95;;
75758;SDS011;64371;47.566;19.086;2023-07-02T11:20:43;5.07;;;3.53;;
75758;SDS011;64371;47.566;19.086;2023-07-02T11:23:47;4.32;;;3.13;;
75758;SDS011;64371;47.566;19.086;2023-07-02T11:26:49;4.82;;;3.60;;
75758;SDS011;64371;47.566;19.086;2023-07-02T11:29:58;8.77;;;3.45;;
75758;SDS011;64371;47.566;19.086;2023-07-02T11:33:01;5.38;;;3.10;;
75758;SDS011;64371;47.566;19.086;2023-07-02T11:36:05;7.90;;;3.63;;
75758;SDS011;64371;47.566;19.086;2023-07-02T11:39:08;7.53;;;3.72;;
75758;SDS011;64371;47.566;19.086;2023-07-02T11:42:10;5.72;;;3.70;;
75758;SDS011;64371;47.566;19.086;2023-07-02T11:45:12;4.28;;;3.50;;
75758;SDS011;64371;47.566;19.086;2023-07-02T11:48:15;6.70;;;3.83;;
75758;SDS011;64371;47.566;19.086;2023-07-02T11:51:17;7.87;;;3.30;;
75758;SDS011;64371;47.566;19.086;2023-07-02T11:54:19;4.75;;;3.33;;
75758;SDS011;64371;47.566;19.086;2023-07-02T11:57:22;8.20;;;3.60;;
75758;SDS011;64371;47.566;19.086;2023-07-02T12:00:24;4.63;;;3.08;;
75758;SDS011;64371;47.566;19.086;2023-07-02T12:03:27;6.43;;;3.10;;
75758;SDS011;64371;47.566;19.086;2023-07-02T12:06:30;5.90;;;3.27;;
75758;SDS011;64371;47.566;19.086;2023-07-02T12:09:32;4.93;;;2.80;;
75758;SDS011;64371;47.566;19.086;2023-07-02T12:12:35;3.97;;;3.28;;
75758;SDS011;64371;47.566;19.086;2023-07-02T12:15:37;4.72;;;3.08;;
75758;SDS011;64371;47.566;19.086;2023-07-02T12:18:39;4.45;;;3.58;;
75758;SDS011;64371;47.566;19.086;2023-07-02T12:21:42;4.13;;;2.87;;
75758;SDS011;64371;47.566;19.086;2023-07-02T12:24:44;4.28;;;3.00;;
75758;SDS011;64371;47.566;19.086;2023-07-02T12:27:46;3.35;;;2.97;;
75758;SDS011;64371;47.566;19.086;2023-07-02T12:30:49;3.10;;;2.80;;
75758;SDS011;64371;47.566;19.086;2023-07-02T12:33:51;3.80;;;3.40;;
75758;SDS011;64371;47.566;19.086;2023-07-02T12:36:53;5.33;;;3.17;;
75758;SDS011;64371;47.566;19.086;2023-07-02T12:39:56;4.47;;;3.30;;
75758;SDS011;64371;47.566;19.086;2023-07-02T12:42:58;3.42;;;2.95;;
75758;SDS011;64371;47.566;19.086;2023-07-02T12:46:00;5.30;;;2.40;;
75758;SDS011;64371;47.566;19.086;2023-07-02T12:49:03;5.32;;;2.70;;
75758;SDS011;64371;47.566;19.086;2023-07-02T12:52:05;4.23;;;3.13;;
75758;SDS011;64371;47.566;19.086;2023-07-02T12:55:08;4.85;;;3.45;;
75758;SDS011;64371;47.566;19.086;2023-07-02T12:58:10;3.83;;;2.33;;
75758;SDS011;64371;47.566;19.086;2023-07-02T13:01:13;3.92;;;2.08;;
75758;SDS011;64371;47.566;19.086;2023-07-02T13:04:15;3.15;;;2.45;;
75758;SDS011;64371;47.566;19.086;2023-07-02T13:07:18;2.43;;;1.33;;
75758;SDS011;64371;47.566;19.086;2023-07-02T13:10:20;2.17;;;1.58;;
75758;SDS011;64371;47.566;19.086;2023-07-02T13:13:23;1.77;;;1.10;;
75758;SDS011;64371;47.566;19.086;2023-07-02T13:16:28;2.55;;;1.60;;
75758;SDS011;64371;47.566;19.086;2023-07-02T13:19:31;3.85;;;1.48;;
75758;SDS011;64371;47.566;19.086;2023-07-02T13:22:34;4.23;;;1.47;;
75758;SDS011;64371;47.566;19.086;2023-07-02T13:25:36;3.63;;;1.33;;
75758;SDS011;64371;47.566;19.086;2023-07-02T13:28:39;1.23;;;1.13;;
75758;SDS011;64371;47.566;19.086;2023-07-02T13:31:41;1.63;;;1.25;;
75758;SDS011;64371;47.566;19.086;2023-07-02T13:34:44;3.38;;;1.20;;
75758;SDS011;64371;47.566;19.086;2023-07-02T13:37:46;2.03;;;1.30;;
75758;SDS011;64371;47.566;19.086;2023-07-02T13:40:48;3.13;;;1.20;;
75758;SDS011;64371;47.566;19.086;2023-07-02T13:43:51;2.10;;;1.60;;
75758;SDS011;64371;47.566;19.086;2023-07-02T13:46:53;2.63;;;1.33;;
75758;SDS011;64371;47.566;19.086;2023-07-02T13:49:55;2.05;;;1.30;;
75758;SDS011;64371;47.566;19.086;2023-07-02T13:52:58;2.40;;;1.30;;
75758;SDS011;64371;47.566;19.086;2023-07-02T13:56:00;1.45;;;1.25;;
75758;SDS011;64371;47.566;19.086;2023-07-02T13:59:03;1.88;;;1.60;;
75758;SDS011;64371;47.566;19.086;2023-07-02T14:02:06;3.33;;;1.30;;
75758;SDS011;64371;47.566;19.086;2023-07-02T14:05:09;1.42;;;1.17;;
75758;SDS011;64371;47.566;19.086;2023-07-02T14:08:11;1.67;;;1.57;;
75758;SDS011;64371;47.566;19.086;2023-07-02T14:11:14;2.50;;;1.63;;
75758;SDS011;64371;47.566;19.086;2023-07-02T14:14:16;1.83;;;1.73;;
75758;SDS011;64371;47.566;19.086;2023-07-02T14:17:18;2.33;;;1.45;;
75758;SDS011;64371;47.566;19.086;2023-07-02T14:20:21;2.92;;;1.63;;
75758;SDS011;64371;47.566;19.086;2023-07-02T14:23:23;1.37;;;1.20;;
75758;SDS011;64371;47.566;19.086;2023-07-02T14:26:25;2.90;;;1.58;;
75758;SDS011;64371;47.566;19.086;2023-07-02T14:29:28;2.53;;;1.70;;
75758;SDS011;64371;47.566;19.086;2023-07-02T14:32:30;1.90;;;1.70;;
75758;SDS011;64371;47.566;19.086;2023-07-02T14:35:32;3.72;;;1.92;;
75758;SDS011;64371;47.566;19.086;2023-07-02T14:38:35;2.57;;;1.73;;
75758;SDS011;64371;47.566;19.086;2023-07-02T14:41:37;2.90;;;1.90;;
75758;SDS011;64371;47.566;19.086;2023-07-02T14:44:41;2.03;;;1.50;;
75758;SDS011;64371;47.566;19.086;2023-07-02T14:47:43;1.85;;;1.50;;
75758;SDS011;64371;47.566;19.086;2023-07-02T14:50:50;1.92;;;1.70;;
75758;SDS011;64371;47.566;19.086;2023-07-02T14:53:54;3.73;;;1.60;;
75758;SDS011;64371;47.566;19.086;2023-07-02T14:56:57;3.20;;;1.55;;
75758;SDS011;64371;47.566;19.086;2023-07-02T14:59:59;3.58;;;2.20;;
75758;SDS011;64371;47.566;19.086;2023-07-02T15:03:02;2.33;;;2.10;;
75758;SDS011;64371;47.566;19.086;2023-07-02T15:06:08;3.53;;;2.03;;
75758;SDS011;64371;47.566;19.086;2023-07-02T15:09:12;2.60;;;1.73;;
75758;SDS011;64371;47.566;19.086;2023-07-02T15:12:14;1.83;;;1.73;;
75758;SDS011;64371;47.566;19.086;2023-07-02T15:15:17;4.00;;;1.77;;
75758;SDS011;64371;47.566;19.086;2023-07-02T15:18:19;1.90;;;1.65;;
75758;SDS011;64371;47.566;19.086;2023-07-02T15:21:25;5.00;;;1.40;;
75758;SDS011;64371;47.566;19.086;2023-07-02T15:24:27;2.67;;;1.50;;
75758;SDS011;64371;47.566;19.086;2023-07-02T15:27:29;2.55;;;1.50;;
75758;SDS011;64371;47.566;19.086;2023-07-02T15:30:32;2.60;;;1.70;;
75758;SDS011;64371;47.566;19.086;2023-07-02T15:33:34;3.42;;;1.88;;
75758;SDS011;64371;47.566;19.086;2023-07-02T15:36:36;2.50;;;1.40;;
75758;SDS011;64371;47.566;19.086;2023-07-02T15:39:39;2.17;;;1.40;;
75758;SDS011;64371;47.566;19.086;2023-07-02T15:42:41;1.23;;;1.13;;
75758;SDS011;64371;47.566;19.086;2023-07-02T15:45:44;1.65;;;1.05;;
75758;SDS011;64371;47.566;19.086;2023-07-02T15:48:46;1.40;;;1.02;;
75758;SDS011;64371;47.566;19.086;2023-07-02T15:51:48;2.95;;;1.15;;
75758;SDS011;64371;47.566;19.086;2023-07-02T15:54:51;2.13;;;1.20;;
75758;SDS011;64371;47.566;19.086;2023-07-02T15:57:53;1.65;;;1.30;;
75758;SDS011;64371;47.566;19.086;2023-07-02T16:01:07;1.70;;;1.58;;
75758;SDS011;64371;47.566;19.086;2023-07-02T16:04:17;2.08;;;1.58;;
75758;SDS011;64371;47.566;19.086;2023-07-02T16:07:20;2.03;;;1.30;;
75758;SDS011;64371;47.566;19.086;2023-07-02T16:10:22;2.53;;;1.40;;
75758;SDS011;64371;47.566;19.086;2023-07-02T16:13:24;3.30;;;1.50;;
75758;SDS011;64371;47.566;19.086;2023-07-02T16:16:27;2.47;;;2.13;;
75758;SDS011;64371;47.566;19.086;2023-07-02T16:19:29;3.42;;;1.90;;
75758;SDS011;64371;47.566;19.086;2023-07-02T16:22:31;2.42;;;1.80;;
75758;SDS011;64371;47.566;19.086;2023-07-02T16:25:34;2.50;;;1.60;;
75758;SDS011;64371;47.566;19.086;2023-07-02T16:28:36;2.08;;;1.88;;
75758;SDS011;64371;47.566;19.086;2023-07-02T16:31:48;3.47;;;2.10;;
75758;SDS011;64371;47.566;19.086;2023-07-02T16:34:54;2.42;;;2.10;;
75758;SDS011;64371;47.566;19.086;2023-07-02T16:37:56;2.42;;;2.22;;
75758;SDS011;64371;47.566;19.086;2023-07-02T16:40:59;2.13;;;1.83;;
75758;SDS011;64371;47.566;19.086;2023-07-02T16:44:01;3.80;;;1.58;;
75758;SDS011;64371;47.566;19.086;2023-07-02T16:47:04;2.92;;;2.10;;
75758;SDS011;64371;47.566;19.086;2023-07-02T16:50:07;3.03;;;1.90;;
75758;SDS011;64371;47.566;19.086;2023-07-02T16:53:09;2.63;;;1.45;;
75758;SDS011;64371;47.566;19.086;2023-07-02T16:56:11;2.50;;;1.50;;
75758;SDS011;64371;47.566;19.086;2023-07-02T16:59:15;1.98;;;1.77;;
75758;SDS011;64371;47.566;19.086;2023-07-02T17:02:19;3.05;;;1.88;;
75758;SDS011;64371;47.566;19.086;2023-07-02T17:05:21;1.75;;;1.60;;
75758;SDS011;64371;47.566;19.086;2023-07-02T17:08:24;3.15;;;1.98;;
75758;SDS011;64371;47.566;19.086;2023-07-02T17:11:26;3.63;;;1.60;;
75758;SDS011;64371;47.566;19.086;2023-07-02T17:14:29;2.58;;;1.70;;
75758;SDS011;64371;47.566;19.086;2023-07-02T17:17:35;2.22;;;1.90;;
75758;SDS011;64371;47.566;19.086;2023-07-02T17:20:37;2.85;;;1.67;;
75758;SDS011;64371;47.566;19.086;2023-07-02T17:23:41;4.70;;;1.67;;
75758;SDS011;64371;47.566;19.086;2023-07-02T17:26:43;2.80;;;1.67;;
75758;SDS011;64371;47.566;19.086;2023-07-02T17:29:49;2.92;;;1.60;;
75758;SDS011;64371;47.566;19.086;2023-07-02T17:32:53;5.80;;;2.00;;
75758;SDS011;64371;47.566;19.086;2023-07-02T17:35:55;2.70;;;1.65;;
75758;SDS011;64371;47.566;19.086;2023-07-02T17:38:57;2.92;;;2.00;;
75758;SDS011;64371;47.566;19.086;2023-07-02T17:42:00;2.30;;;2.10;;
75758;SDS011;64371;47.566;19.086;2023-07-02T17:45:03;5.30;;;2.40;;
75758;SDS011;64371;47.566;19.086;2023-07-02T17:48:05;5.72;;;2.28;;
75758;SDS011;64371;47.566;19.086;2023-07-02T17:51:07;2.67;;;2.00;;
75758;SDS011;64371;47.566;19.086;2023-07-02T17:54:10;3.42;;;2.40;;
75758;SDS011;64371;47.566;19.086;2023-07-02T17:57:13;4.30;;;1.90;;
75758;SDS011;64371;47.566;19.086;2023-07-02T18:00:17;2.95;;;1.92;;
75758;SDS011;64371;47.566;19.086;2023-07-02T18:03:19;4.30;;;2.13;;
75758;SDS011;64371;47.566;19.086;2023-07-02T18:06:22;3.80;;;1.80;;